createdAt,value
2019-05-06T00:03:08.436Z,38.26
2019-05-06T00:05:36.435Z,38.01
2019-05-06T00:08:04.424Z,38.04
2019-05-06T00:10:34.153Z,38.18
2019-05-06T00:13:04.399Z,38.24
2019-05-06T00:15:34.083Z,38.11
2019-05-06T00:18:01.825Z,38.33
2019-05-06T00:20:30.091Z,38.32
2019-05-06T00:28:44.610Z,38.29
2019-05-06T00:34:04.196Z,38.27
2019-05-06T00:36:34.307Z,38.28
2019-05-06T00:44:20.729Z,38.18
2019-05-06T00:46:48.556Z,38.35
2019-05-06T00:49:16.560Z,37.99
2019-05-06T00:51:47.035Z,38.33
2019-05-06T00:57:05.954Z,38.27
2019-05-06T00:59:34.568Z,38.29
2019-05-06T01:02:04.620Z,37.92
2019-05-06T01:04:34.041Z,38.39
2019-05-06T01:07:03.999Z,38.32
2019-05-06T01:09:34.346Z,38.34
2019-05-06T01:12:03.765Z,38.12
2019-05-06T01:17:24.820Z,37.84
2019-05-06T01:19:54.118Z,38.24
2019-05-06T01:22:24.667Z,38.38
2019-05-06T01:24:52.402Z,38.32
2019-05-06T01:27:20.371Z,38.40
2019-05-06T01:29:48.869Z,37.98
2019-05-06T01:32:16.938Z,38.33
2019-05-06T01:35:04.744Z,38.49
2019-05-06T01:37:34.702Z,38.42
2019-05-06T01:40:23.889Z,38.36
2019-05-06T01:43:11.516Z,38.33
2019-05-06T01:45:40.080Z,38.33
2019-05-06T01:48:08.420Z,38.11
2019-05-06T01:50:36.400Z,38.20
2019-05-06T01:53:04.995Z,38.31
2019-05-06T01:55:34.387Z,38.40
2019-05-06T01:58:21.413Z,38.33
2019-05-06T02:00:49.549Z,38.46
2019-05-06T02:03:17.604Z,38.57
2019-05-06T02:05:45.731Z,38.38
2019-05-06T02:08:33.680Z,38.21
2019-05-06T02:11:23.994Z,38.37
2019-05-06T02:13:53.662Z,38.56
2019-05-06T02:16:23.918Z,38.47
2019-05-06T02:18:51.269Z,38.21
2019-05-06T02:21:38.332Z,38.11
2019-05-06T02:26:55.421Z,38.38
2019-05-06T02:29:43.428Z,38.00
2019-05-06T02:35:00.671Z,38.24
2019-05-06T02:37:47.681Z,38.41
2019-05-06T02:40:18.458Z,38.34
2019-05-06T02:42:46.296Z,38.37
2019-05-06T02:45:14.495Z,38.51
2019-05-06T02:52:58.360Z,38.34
2019-05-06T02:58:02.706Z,38.64
2019-05-06T03:00:29.625Z,38.33
2019-05-06T03:02:57.720Z,38.24
2019-05-06T03:05:26.019Z,38.44
2019-05-06T03:07:57.062Z,38.47
2019-05-06T03:10:24.735Z,38.15
2019-05-06T03:12:53.938Z,38.45
2019-05-06T03:15:23.950Z,38.52
2019-05-06T03:17:55.343Z,38.59
2019-05-06T03:25:54.953Z,38.57
2019-05-06T03:28:23.009Z,38.23
2019-05-06T03:30:55.855Z,38.69
2019-05-06T03:33:40.079Z,38.56
2019-05-06T03:36:05.282Z,38.43
2019-05-06T03:38:22.885Z,38.64
2019-05-06T03:40:53.570Z,38.51
2019-05-06T03:43:23.452Z,38.77
2019-05-06T03:46:14.284Z,38.46
2019-05-06T03:48:44.222Z,38.59
2019-05-06T03:51:13.502Z,38.63
2019-05-06T03:53:43.301Z,38.50
2019-05-06T03:56:16.840Z,38.88
2019-05-06T03:58:43.493Z,38.83
2019-05-06T04:01:13.175Z,39.20
2019-05-06T04:03:47.643Z,38.99
2019-05-06T04:06:13.831Z,38.89
2019-05-06T04:08:43.667Z,39.20
2019-05-06T04:11:13.586Z,39.58
2019-05-06T04:13:43.571Z,39.51
2019-05-06T04:22:05.307Z,37.81
2019-05-06T04:27:53.795Z,38.31
2019-05-06T04:30:24.330Z,38.77
2019-05-06T04:32:53.142Z,38.82
2019-05-06T04:35:22.981Z,38.34
2019-05-06T04:37:53.959Z,38.03
2019-05-06T04:40:23.801Z,38.61
2019-05-06T04:42:52.766Z,38.01
2019-05-06T04:45:23.635Z,37.81
2019-05-06T04:47:53.624Z,38.33
2019-05-06T04:50:23.872Z,37.84
2019-05-06T04:53:04.554Z,38.71
2019-05-06T04:55:54.387Z,38.70
2019-05-06T04:58:23.340Z,39.00
2019-05-06T05:03:22.751Z,38.11
2019-05-06T05:05:52.706Z,38.61
2019-05-06T05:08:22.351Z,37.54
2019-05-06T05:11:04.788Z,37.37
2019-05-06T05:14:03.276Z,37.39
2019-05-06T05:16:36.993Z,37.44
2019-05-06T05:19:07.487Z,37.75
2019-05-06T05:21:35.464Z,38.55
2019-05-06T05:24:03.446Z,38.46
2019-05-06T05:26:32.242Z,38.28
2019-05-06T05:29:02.808Z,37.86
2019-05-06T05:31:30.387Z,38.10
2019-05-06T05:34:02.124Z,38.41
2019-05-06T05:36:32.591Z,38.41
2019-05-06T05:38:59.981Z,38.75
2019-05-06T05:41:28.031Z,37.93
2019-05-06T05:44:13.000Z,38.29
2019-05-06T05:46:40.951Z,38.76
2019-05-06T05:49:27.986Z,38.57
2019-05-06T05:51:56.054Z,38.62
2019-05-06T05:54:24.103Z,38.34
2019-05-06T05:56:52.906Z,38.57
2019-05-06T05:59:24.046Z,38.33
2019-05-06T06:01:53.005Z,38.35
2019-05-06T06:04:22.419Z,37.94
2019-05-06T06:06:51.987Z,38.42
2019-05-06T06:09:22.383Z,38.65
2019-05-06T06:11:53.212Z,38.58
2019-05-06T06:14:49.431Z,38.23
2019-05-06T06:17:34.941Z,38.39
2019-05-06T06:20:22.022Z,38.59
2019-05-06T06:22:52.170Z,38.49
2019-05-06T06:25:23.337Z,38.31
2019-05-06T06:27:51.875Z,37.92
2019-05-06T06:30:22.231Z,38.45
2019-05-06T06:32:50.284Z,37.33
2019-05-06T06:35:32.471Z,38.46
2019-05-06T06:38:23.872Z,38.47
2019-05-06T06:40:55.497Z,38.41
2019-05-06T06:43:24.469Z,38.53
2019-05-06T06:45:53.107Z,38.33
2019-05-06T06:48:22.880Z,38.47
2019-05-06T06:50:52.209Z,38.51
2019-05-06T06:53:21.864Z,38.53
2019-05-06T06:55:49.846Z,38.16
2019-05-06T06:58:34.967Z,38.47
2019-05-06T07:01:27.974Z,38.48
2019-05-06T07:04:05.700Z,38.42
2019-05-06T07:06:53.001Z,38.28
2019-05-06T07:09:23.042Z,38.31
2019-05-06T07:11:52.492Z,37.99
2019-05-06T07:14:20.014Z,38.32
2019-05-06T07:16:47.868Z,38.17
2019-05-06T07:19:19.186Z,38.21
2019-05-06T07:21:52.278Z,38.35
2019-05-06T07:24:22.676Z,38.26
2019-05-06T07:26:54.186Z,38.33
2019-05-06T07:29:26.354Z,38.06
2019-05-06T07:31:53.460Z,38.21
2019-05-06T07:34:22.936Z,38.26
2019-05-06T07:36:52.492Z,38.23
2019-05-06T07:39:24.149Z,38.24
2019-05-06T07:41:58.164Z,37.91
2019-05-06T07:44:52.845Z,37.81
2019-05-06T07:47:57.415Z,37.72
2019-05-06T07:50:25.500Z,37.65
2019-05-06T07:53:09.561Z,37.59
2019-05-06T07:55:37.927Z,37.43
2019-05-06T07:58:05.918Z,37.44
2019-05-06T08:00:33.801Z,37.48
2019-05-06T08:03:02.520Z,37.17
2019-05-06T08:05:32.487Z,37.57
2019-05-06T08:08:02.777Z,37.40
2019-05-06T08:10:30.023Z,36.99
2019-05-06T08:12:57.820Z,37.23
2019-05-06T08:15:26.028Z,37.26
2019-05-06T08:17:53.870Z,37.27
2019-05-06T08:20:22.267Z,37.29
2019-05-06T08:23:06.244Z,37.19
2019-05-06T08:25:39.344Z,37.55
2019-05-06T08:28:07.324Z,37.22
2019-05-06T08:30:35.305Z,37.33
2019-05-06T08:33:03.151Z,37.36
2019-05-06T08:35:33.054Z,37.22
2019-05-06T08:38:02.399Z,37.30
2019-05-06T08:40:32.117Z,37.29
2019-05-06T08:43:02.188Z,36.99
2019-05-06T08:45:29.862Z,37.27
2019-05-06T08:47:57.903Z,36.93
2019-05-06T08:50:32.522Z,37.23
2019-05-06T08:53:32.890Z,37.30
2019-05-06T08:56:02.013Z,37.25
2019-05-06T08:58:48.673Z,37.13
2019-05-06T09:01:28.743Z,37.19
2019-05-06T09:04:08.360Z,37.07
2019-05-06T09:06:30.279Z,37.40
2019-05-06T09:08:56.970Z,37.51
2019-05-06T09:11:25.891Z,37.50
2019-05-06T09:13:53.724Z,37.32
2019-05-06T09:16:22.322Z,37.32
2019-05-06T09:18:53.118Z,37.32
2019-05-06T09:21:22.422Z,37.41
2019-05-06T09:23:50.003Z,37.49
2019-05-06T09:26:22.437Z,37.44
2019-05-06T09:28:56.057Z,37.45
2019-05-06T09:31:38.056Z,37.54
2019-05-06T09:34:17.046Z,37.54
2019-05-06T09:36:51.720Z,37.44
2019-05-06T09:39:14.490Z,37.35
2019-05-06T09:41:46.761Z,37.32
2019-05-06T09:44:12.494Z,37.34
2019-05-06T09:46:42.688Z,37.32
2019-05-06T09:49:22.742Z,37.22
2019-05-06T09:51:50.178Z,37.19
2019-05-06T09:54:32.150Z,37.17
2019-05-06T09:57:06.480Z,37.11
2019-05-06T09:59:34.373Z,36.83
2019-05-06T10:02:02.279Z,36.79
2019-05-06T10:04:32.377Z,37.04
2019-05-06T10:07:00.093Z,36.76
2019-05-06T10:09:27.992Z,36.89
2019-05-06T10:11:55.828Z,36.93
2019-05-06T10:14:23.758Z,36.79
2019-05-06T10:16:52.418Z,36.80
2019-05-06T10:19:22.680Z,36.94
2019-05-06T10:21:50.299Z,37.04
2019-05-06T10:24:18.168Z,36.91
2019-05-06T10:26:52.341Z,36.83
2019-05-06T10:29:43.252Z,37.01
2019-05-06T10:32:48.646Z,36.66
2019-05-06T10:35:16.731Z,36.80
2019-05-06T10:38:06.688Z,37.05
2019-05-06T10:40:44.018Z,36.86
2019-05-06T10:43:10.030Z,36.85
2019-05-06T10:45:38.036Z,36.98
2019-05-06T10:48:05.974Z,36.41
2019-05-06T10:50:38.031Z,36.64
2019-05-06T10:53:23.399Z,36.59
2019-05-06T10:55:53.749Z,36.46
2019-05-06T10:58:22.704Z,36.38
2019-05-06T11:00:54.177Z,36.56
2019-05-06T11:03:23.021Z,36.35
2019-05-06T11:05:53.142Z,36.42
2019-05-06T11:08:22.123Z,35.54
2019-05-06T11:10:50.332Z,36.54
2019-05-06T11:13:18.373Z,36.49
2019-05-06T11:15:46.666Z,36.45
2019-05-06T11:18:14.493Z,36.31
2019-05-06T11:20:43.731Z,36.51
2019-05-06T11:23:14.220Z,36.39
2019-05-06T11:25:43.158Z,36.42
2019-05-06T11:28:29.400Z,36.46
2019-05-06T11:31:13.887Z,36.44
2019-05-06T11:33:56.629Z,36.49
2019-05-06T11:36:32.837Z,36.10
2019-05-06T11:39:00.717Z,36.38
2019-05-06T11:41:28.944Z,36.44
2019-05-06T11:43:57.045Z,36.41
2019-05-06T11:46:24.973Z,36.48
2019-05-06T11:48:52.877Z,36.60
2019-05-06T11:51:23.101Z,36.72
2019-05-06T11:53:53.847Z,36.69
2019-05-06T11:56:22.917Z,36.70
2019-05-06T11:58:53.166Z,36.82
2019-05-06T12:01:25.176Z,36.71
2019-05-06T12:03:53.157Z,36.56
2019-05-06T12:06:22.704Z,36.69
2019-05-06T12:08:52.411Z,36.85
2019-05-06T12:11:23.393Z,36.77
2019-05-06T12:13:50.239Z,35.50
2019-05-06T12:16:18.193Z,36.63
2019-05-06T12:18:46.188Z,36.72
2019-05-06T12:21:19.045Z,37.03
2019-05-06T12:23:44.998Z,36.87
2019-05-06T12:26:13.373Z,37.05
2019-05-06T12:28:43.534Z,37.10
2019-05-06T12:31:12.638Z,37.05
2019-05-06T12:33:44.729Z,36.98
2019-05-06T12:36:20.255Z,37.01
2019-05-06T12:39:06.834Z,36.98
2019-05-06T12:41:37.292Z,36.95
2019-05-06T12:44:05.462Z,36.97
2019-05-06T12:46:43.194Z,36.90
2019-05-06T12:49:13.155Z,36.80
2019-05-06T12:51:43.236Z,36.77
2019-05-06T12:54:12.884Z,36.72
2019-05-06T12:56:42.427Z,36.78
2019-05-06T12:59:12.584Z,36.69
2019-05-06T13:01:39.993Z,36.61
2019-05-06T13:04:07.847Z,36.61
2019-05-06T13:06:35.976Z,36.69
2019-05-06T13:09:05.329Z,36.80
2019-05-06T13:11:33.416Z,36.77
2019-05-06T13:14:04.040Z,36.82
2019-05-06T13:16:33.318Z,36.71
2019-05-06T13:19:03.096Z,36.82
2019-05-06T13:21:32.568Z,36.66
2019-05-06T13:24:04.773Z,36.80
2019-05-06T13:26:34.825Z,36.67
2019-05-06T13:29:08.112Z,36.62
2019-05-06T13:31:36.152Z,36.69
2019-05-06T13:34:23.411Z,36.68
2019-05-06T13:36:53.324Z,36.60
2019-05-06T13:39:23.707Z,36.57
2019-05-06T13:41:52.844Z,36.58
2019-05-06T13:44:22.745Z,36.39
2019-05-06T13:46:53.268Z,36.42
2019-05-06T13:49:42.608Z,36.38
2019-05-06T13:52:12.639Z,36.64
2019-05-06T13:54:42.172Z,36.44
2019-05-06T13:57:12.543Z,36.45
2019-05-06T13:59:40.494Z,36.52
2019-05-06T14:02:36.222Z,36.30
2019-05-06T14:05:05.054Z,36.15
2019-05-06T14:07:34.387Z,35.31
2019-05-06T14:10:02.847Z,36.06
2019-05-06T14:12:33.146Z,35.79
2019-05-06T14:15:04.141Z,35.53
2019-05-06T14:17:32.633Z,35.07
2019-05-06T14:20:02.433Z,35.42
2019-05-06T14:22:29.817Z,35.40
2019-05-06T14:25:16.054Z,35.33
2019-05-06T14:27:44.766Z,35.48
2019-05-06T14:30:17.657Z,35.69
2019-05-06T14:32:45.992Z,35.53
2019-05-06T14:35:13.911Z,35.58
2019-05-06T14:37:42.289Z,35.05
2019-05-06T14:40:11.951Z,34.97
2019-05-06T14:42:42.142Z,35.72
2019-05-06T14:45:09.637Z,35.31
2019-05-06T14:47:39.261Z,35.61
2019-05-06T14:50:07.572Z,35.83
2019-05-06T14:52:35.624Z,35.65
2019-05-06T14:55:15.323Z,33.63
2019-05-06T14:57:43.617Z,35.65
2019-05-06T15:00:14.031Z,36.02
2019-05-06T15:02:42.817Z,35.38
2019-05-06T15:05:13.037Z,36.15
2019-05-06T15:07:42.077Z,36.25
2019-05-06T15:10:21.958Z,36.32
2019-05-06T15:12:42.474Z,36.44
2019-05-06T15:15:11.641Z,36.35
2019-05-06T15:17:39.300Z,36.43
2019-05-06T15:20:07.470Z,36.59
2019-05-06T15:22:35.367Z,36.71
2019-05-06T15:25:03.622Z,36.64
2019-05-06T15:27:33.466Z,36.58
2019-05-06T15:30:03.458Z,35.60
2019-05-06T15:32:36.506Z,36.71
2019-05-06T15:35:23.269Z,36.46
2019-05-06T15:38:02.103Z,36.56
2019-05-06T15:40:34.196Z,36.53
2019-05-06T15:42:59.333Z,36.52
2019-05-06T15:45:27.347Z,36.27
2019-05-06T15:47:55.271Z,36.31
2019-05-06T15:50:23.348Z,36.10
2019-05-06T15:52:53.624Z,35.29
2019-05-06T15:55:22.585Z,35.81
2019-05-06T15:57:52.662Z,36.30
2019-05-06T16:00:22.552Z,36.41
2019-05-06T16:02:52.774Z,36.44
2019-05-06T16:05:22.335Z,35.63
2019-05-06T16:07:49.509Z,36.32
2019-05-06T16:10:17.285Z,36.42
2019-05-06T16:12:46.173Z,36.40
2019-05-06T16:15:14.090Z,36.58
2019-05-06T16:17:42.744Z,35.94
2019-05-06T16:20:12.962Z,36.39
2019-05-06T16:22:44.144Z,36.38
2019-05-06T16:25:13.325Z,36.37
2019-05-06T16:27:43.849Z,36.28
2019-05-06T16:30:13.131Z,36.23
2019-05-06T16:32:41.987Z,36.13
2019-05-06T16:35:11.936Z,36.19
2019-05-06T16:37:42.049Z,36.42
2019-05-06T16:40:12.084Z,36.12
2019-05-06T16:42:39.148Z,36.07
2019-05-06T16:45:07.254Z,35.93
2019-05-06T16:47:38.889Z,36.27
2019-05-06T16:50:07.789Z,36.12
2019-05-06T16:52:35.792Z,35.99
2019-05-06T16:55:03.989Z,36.13
2019-05-06T16:57:33.357Z,36.25
2019-05-06T17:00:39.505Z,36.13
2019-05-06T17:06:25.575Z,35.30
2019-05-06T17:11:42.511Z,36.11
2019-05-06T17:14:12.244Z,36.30
2019-05-06T17:16:42.171Z,36.29
2019-05-06T17:19:09.491Z,36.31
2019-05-06T17:21:37.764Z,36.04
2019-05-06T17:24:05.504Z,36.02
2019-05-06T17:26:33.925Z,36.33
2019-05-06T17:29:22.686Z,36.32
2019-05-06T17:32:28.919Z,36.40
2019-05-06T17:34:57.734Z,36.54
2019-05-06T17:37:45.462Z,36.31
2019-05-06T17:43:03.119Z,36.34
2019-05-06T17:46:01.088Z,36.45
2019-05-06T17:48:38.672Z,36.45
2019-05-06T17:51:25.568Z,36.39
2019-05-06T17:56:28.590Z,36.46
2019-05-06T17:59:15.660Z,36.61
2019-05-06T18:04:53.413Z,36.52
2019-05-06T18:07:23.018Z,36.52
2019-05-06T18:09:52.240Z,36.58
2019-05-06T18:12:22.572Z,36.61
2019-05-06T18:15:09.390Z,36.64
2019-05-06T18:17:37.639Z,36.63
2019-05-06T18:20:24.697Z,36.67
2019-05-06T18:22:52.673Z,36.72
2019-05-06T18:25:22.911Z,36.80
2019-05-06T18:27:52.533Z,36.79
2019-05-06T18:30:26.867Z,36.82
2019-05-06T18:35:23.722Z,36.71
2019-05-06T18:37:52.160Z,36.70
2019-05-06T18:40:23.053Z,36.73
2019-05-06T18:42:52.509Z,36.59
2019-05-06T18:45:22.069Z,36.63
2019-05-06T18:47:53.038Z,36.83
2019-05-06T18:50:22.025Z,36.90
2019-05-06T18:52:52.837Z,36.95
2019-05-06T18:55:22.376Z,36.93
2019-05-06T18:57:52.654Z,36.84
2019-05-06T19:00:22.269Z,36.90
2019-05-06T19:02:52.037Z,36.90
2019-05-06T19:05:39.863Z,36.84
2019-05-06T19:08:26.758Z,36.87
2019-05-06T19:10:55.093Z,36.93
2019-05-06T19:13:23.065Z,36.90
2019-05-06T19:15:52.628Z,36.98
2019-05-06T19:18:22.460Z,36.91
2019-05-06T19:20:50.560Z,36.97
2019-05-06T19:23:18.582Z,36.92
2019-05-06T19:25:46.533Z,36.92
2019-05-06T19:28:14.570Z,36.98
2019-05-06T19:30:42.611Z,36.97
2019-05-06T19:33:29.731Z,36.99
2019-05-06T19:35:57.701Z,36.91
2019-05-06T19:41:13.338Z,37.03
2019-05-06T19:43:41.800Z,37.05
2019-05-06T19:46:28.767Z,37.01
2019-05-06T19:48:56.768Z,36.91
2019-05-06T19:51:43.814Z,36.92
2019-05-06T19:54:12.670Z,37.10
2019-05-06T19:56:42.302Z,37.06
2019-05-06T19:59:12.934Z,36.99
2019-05-06T20:01:42.934Z,37.10
2019-05-06T20:07:04.233Z,37.21
2019-05-06T20:09:59.353Z,37.08
2019-05-06T20:12:58.268Z,37.14
2019-05-06T20:15:34.918Z,37.13
2019-05-06T20:18:03.229Z,37.14
2019-05-06T20:20:34.353Z,37.24
2019-05-06T20:23:02.708Z,37.14
2019-05-06T20:25:30.974Z,37.24
2019-05-06T20:27:58.961Z,37.14
2019-05-06T20:30:45.899Z,37.14
2019-05-06T20:33:13.873Z,37.21
2019-05-06T20:35:43.277Z,37.13
2019-05-06T20:38:12.278Z,37.12
2019-05-06T20:40:43.117Z,37.18
2019-05-06T20:43:19.441Z,37.24
2019-05-06T20:45:42.749Z,37.17
2019-05-06T20:48:12.721Z,37.25
2019-05-06T20:50:42.729Z,37.22
2019-05-06T20:53:12.110Z,37.28
2019-05-06T20:55:40.097Z,37.31
2019-05-06T20:58:08.121Z,37.23
2019-05-06T21:00:55.308Z,37.28
2019-05-06T21:03:23.577Z,37.23
2019-05-06T21:06:12.893Z,37.22
2019-05-06T21:08:42.189Z,37.29
2019-05-06T21:11:29.475Z,37.26
2019-05-06T21:13:57.526Z,37.24
2019-05-06T21:16:25.512Z,37.26
2019-05-06T21:18:53.644Z,37.23
2019-05-06T21:21:21.630Z,37.31
2019-05-06T21:23:49.781Z,37.32
2019-05-06T21:26:17.827Z,37.31
2019-05-06T21:28:46.415Z,37.25
2019-05-06T21:31:15.642Z,37.32
2019-05-06T21:34:02.897Z,37.25
2019-05-06T21:36:30.979Z,37.34
2019-05-06T21:38:58.853Z,37.42
2019-05-06T21:41:47.428Z,37.36
2019-05-06T21:44:15.476Z,37.44
2019-05-06T21:46:43.469Z,37.42
2019-05-06T21:49:12.137Z,37.44
2019-05-06T21:51:42.591Z,37.58
2019-05-06T21:54:12.579Z,37.64
2019-05-06T21:56:42.441Z,37.71
2019-05-06T21:59:22.262Z,37.68
2019-05-06T22:04:18.179Z,37.75
2019-05-06T22:06:46.046Z,37.84
2019-05-06T22:11:49.008Z,37.77
2019-05-06T22:14:36.160Z,37.72
2019-05-06T22:19:53.031Z,37.86
2019-05-06T22:22:23.438Z,37.77
2019-05-06T22:24:55.704Z,37.71
2019-05-06T22:27:21.960Z,37.82
2019-05-06T22:29:52.253Z,37.73
2019-05-06T22:35:11.918Z,37.81
2019-05-06T22:37:42.234Z,37.71
2019-05-06T22:40:09.898Z,37.83
2019-05-06T22:42:37.977Z,37.67
2019-05-06T22:45:06.115Z,37.85
2019-05-06T22:47:34.390Z,37.82
2019-05-06T22:50:22.541Z,37.90
2019-05-06T22:52:52.851Z,37.88
2019-05-06T22:58:28.432Z,37.74
2019-05-06T23:00:57.062Z,37.92
2019-05-06T23:03:25.554Z,37.88
2019-05-06T23:05:53.540Z,37.75
2019-05-06T23:08:21.420Z,37.97
2019-05-06T23:10:49.679Z,37.82
2019-05-06T23:13:17.581Z,37.78
2019-05-06T23:15:45.564Z,37.93
2019-05-06T23:18:13.612Z,37.88
2019-05-06T23:20:43.020Z,37.76
2019-05-06T23:23:12.787Z,38.01
2019-05-06T23:25:43.417Z,37.88
2019-05-06T23:28:11.949Z,37.85
2019-05-06T23:30:39.844Z,37.88
2019-05-06T23:33:07.800Z,37.92
2019-05-06T23:35:35.724Z,37.83
2019-05-06T23:38:23.003Z,37.96
2019-05-06T23:41:08.542Z,37.86
2019-05-06T23:43:54.559Z,37.92
2019-05-06T23:46:40.509Z,37.99
2019-05-06T23:49:26.166Z,37.98
2019-05-06T23:52:12.044Z,37.85
2019-05-06T23:54:57.659Z,37.90
2019-05-06T23:57:24.966Z,37.81
2019-05-06T23:59:54.643Z,37.92
